sensor_id;sensor_type;location;lat;lon;timestamp;pressure;altitude;pressure_sealevel;temperature;humidity
54306;BME280;66145;45.188;5.712;2023-04-24T00:01:26;98748.53;;;19.15;51.96
54306;BME280;66145;45.188;5.712;2023-04-24T00:03:51;98749.34;;;19.15;51.41
54306;BME280;66145;45.188;5.712;2023-04-24T00:06:17;98741.78;;;19.12;51.37
54306;BME280;66145;45.188;5.712;2023-04-24T00:08:42;98726.97;;;19.05;51.60
54306;BME280;66145;45.188;5.712;2023-04-24T00:11:08;98682.59;;;18.73;51.53
54306;BME280;66145;45.188;5.712;2023-04-24T00:13:34;98745.53;;;19.08;51.75
54306;BME280;66145;45.188;5.712;2023-04-24T00:16:00;98749.19;;;19.12;51.79
54306;BME280;66145;45.188;5.712;2023-04-24T00:18:25;98752.13;;;19.07;52.01
54306;BME280;66145;45.188;5.712;2023-04-24T00:20:50;98731.50;;;18.92;51.80
54306;BME280;66145;45.188;5.712;2023-04-24T00:23:16;98698.19;;;18.72;51.63
54306;BME280;66145;45.188;5.712;2023-04-24T00:25:41;98758.09;;;19.09;51.49
54306;BME280;66145;45.188;5.712;2023-04-24T00:28:06;98774.78;;;19.25;51.51
54306;BME280;66145;45.188;5.712;2023-04-24T00:30:32;98761.41;;;19.23;51.35
54306;BME280;66145;45.188;5.712;2023-04-24T00:32:57;98754.63;;;19.21;51.36
54306;BME280;66145;45.188;5.712;2023-04-24T00:35:23;98726.63;;;19.06;51.40
54306;BME280;66145;45.188;5.712;2023-04-24T00:37:48;98744.66;;;19.16;51.58
54306;BME280;66145;45.188;5.712;2023-04-24T00:40:14;98764.94;;;19.24;51.46
54306;BME280;66145;45.188;5.712;2023-04-24T00:42:40;98767.34;;;19.25;51.37
54306;BME280;66145;45.188;5.712;2023-04-24T00:45:06;98760.13;;;19.21;51.44
54306;BME280;66145;45.188;5.712;2023-04-24T00:47:33;98768.69;;;19.19;51.29
54306;BME280;66145;45.188;5.712;2023-04-24T00:50:01;98772.56;;;19.18;51.70
54306;BME280;66145;45.188;5.712;2023-04-24T00:52:27;98767.56;;;19.20;51.54
54306;BME280;66145;45.188;5.712;2023-04-24T00:54:53;98761.09;;;19.16;51.49
54306;BME280;66145;45.188;5.712;2023-04-24T00:57:19;98757.25;;;19.17;51.38
54306;BME280;66145;45.188;5.712;2023-04-24T00:59:45;98760.78;;;19.18;51.40
54306;BME280;66145;45.188;5.712;2023-04-24T01:02:11;98733.47;;;19.00;51.52
54306;BME280;66145;45.188;5.712;2023-04-24T01:04:37;98780.41;;;19.28;51.40
54306;BME280;66145;45.188;5.712;2023-04-24T01:07:04;98745.81;;;19.06;51.46
54306;BME280;66145;45.188;5.712;2023-04-24T01:09:36;98745.69;;;19.03;51.67
54306;BME280;66145;45.188;5.712;2023-04-24T01:12:01;98745.69;;;19.03;51.63
54306;BME280;66145;45.188;5.712;2023-04-24T01:14:27;98775.78;;;19.20;51.70
54306;BME280;66145;45.188;5.712;2023-04-24T01:16:52;98764.84;;;19.11;51.57
54306;BME280;66145;45.188;5.712;2023-04-24T01:19:18;98786.59;;;19.17;51.72
54306;BME280;66145;45.188;5.712;2023-04-24T01:21:46;98748.28;;;18.99;51.66
54306;BME280;66145;45.188;5.712;2023-04-24T01:24:12;98763.72;;;19.12;51.54
54306;BME280;66145;45.188;5.712;2023-04-24T01:26:38;98752.28;;;19.10;51.17
54306;BME280;66145;45.188;5.712;2023-04-24T01:29:03;98769.94;;;19.22;51.57
54306;BME280;66145;45.188;5.712;2023-04-24T01:31:29;98751.63;;;19.13;51.33
54306;BME280;66145;45.188;5.712;2023-04-24T01:33:56;98767.69;;;19.24;51.51
54306;BME280;66145;45.188;5.712;2023-04-24T01:36:22;98774.00;;;19.24;51.43
54306;BME280;66145;45.188;5.712;2023-04-24T01:38:49;98752.88;;;19.16;51.29
54306;BME280;66145;45.188;5.712;2023-04-24T01:41:14;98775.56;;;19.25;51.44
54306;BME280;66145;45.188;5.712;2023-04-24T01:43:40;98770.09;;;19.25;51.45
54306;BME280;66145;45.188;5.712;2023-04-24T01:46:06;98747.44;;;19.07;51.46
54306;BME280;66145;45.188;5.712;2023-04-24T01:48:31;98757.25;;;19.17;51.54
54306;BME280;66145;45.188;5.712;2023-04-24T01:50:57;98773.47;;;19.31;51.28
54306;BME280;66145;45.188;5.712;2023-04-24T01:53:22;98759.91;;;19.35;51.26
54306;BME280;66145;45.188;5.712;2023-04-24T01:55:48;98757.31;;;19.38;51.03
54306;BME280;66145;45.188;5.712;2023-04-24T01:58:13;98745.19;;;19.39;51.11
54306;BME280;66145;45.188;5.712;2023-04-24T02:00:38;98747.63;;;19.41;51.25
54306;BME280;66145;45.188;5.712;2023-04-24T02:03:04;98731.56;;;19.22;50.91
54306;BME280;66145;45.188;5.712;2023-04-24T02:05:29;98766.00;;;19.40;51.14
54306;BME280;66145;45.188;5.712;2023-04-24T02:07:54;98768.28;;;19.38;51.05
54306;BME280;66145;45.188;5.712;2023-04-24T02:10:20;98742.53;;;19.22;51.25
54306;BME280;66145;45.188;5.712;2023-04-24T02:12:45;98771.22;;;19.33;51.23
54306;BME280;66145;45.188;5.712;2023-04-24T02:15:11;98778.75;;;19.36;50.88
54306;BME280;66145;45.188;5.712;2023-04-24T02:17:40;98772.00;;;19.34;50.86
54306;BME280;66145;45.188;5.712;2023-04-24T02:20:06;98780.84;;;19.39;51.05
54306;BME280;66145;45.188;5.712;2023-04-24T02:22:32;98749.63;;;19.23;51.12
54306;BME280;66145;45.188;5.712;2023-04-24T02:24:57;98785.50;;;19.48;50.98
54306;BME280;66145;45.188;5.712;2023-04-24T02:27:22;98794.19;;;19.50;51.02
54306;BME280;66145;45.188;5.712;2023-04-24T02:29:48;98797.75;;;19.50;50.97
54306;BME280;66145;45.188;5.712;2023-04-24T02:32:13;98769.13;;;19.30;50.97
54306;BME280;66145;45.188;5.712;2023-04-24T02:34:40;98792.94;;;19.38;50.99
54306;BME280;66145;45.188;5.712;2023-04-24T02:37:06;98767.69;;;19.24;51.17
54306;BME280;66145;45.188;5.712;2023-04-24T02:39:31;98778.31;;;19.25;51.12
54306;BME280;66145;45.188;5.712;2023-04-24T02:41:56;98801.66;;;19.40;51.23
54306;BME280;66145;45.188;5.712;2023-04-24T02:44:22;98805.53;;;19.39;51.26
54306;BME280;66145;45.188;5.712;2023-04-24T02:46:47;98802.47;;;19.41;51.28
54306;BME280;66145;45.188;5.712;2023-04-24T02:49:13;98797.91;;;19.45;50.88
54306;BME280;66145;45.188;5.712;2023-04-24T02:51:38;98747.75;;;19.14;50.89
54306;BME280;66145;45.188;5.712;2023-04-24T02:54:07;98797.59;;;19.47;51.03
54306;BME280;66145;45.188;5.712;2023-04-24T02:56:33;98795.47;;;19.52;51.13
54306;BME280;66145;45.188;5.712;2023-04-24T02:58:58;98772.97;;;19.38;50.67
54306;BME280;66145;45.188;5.712;2023-04-24T03:01:23;98770.69;;;19.40;50.69
54306;BME280;66145;45.188;5.712;2023-04-24T03:03:49;98788.84;;;19.53;50.85
54306;BME280;66145;45.188;5.712;2023-04-24T03:06:14;98791.78;;;19.48;50.81
54306;BME280;66145;45.188;5.712;2023-04-24T03:08:40;98806.31;;;19.49;51.18
54306;BME280;66145;45.188;5.712;2023-04-24T03:11:05;98713.31;;;18.87;50.87
54306;BME280;66145;45.188;5.712;2023-04-24T03:13:31;98772.53;;;19.27;50.97
54306;BME280;66145;45.188;5.712;2023-04-24T03:15:56;98769.31;;;19.25;51.04
54306;BME280;66145;45.188;5.712;2023-04-24T03:18:21;98792.28;;;19.41;50.90
54306;BME280;66145;45.188;5.712;2023-04-24T03:20:47;98797.25;;;19.48;50.96
54306;BME280;66145;45.188;5.712;2023-04-24T03:23:12;98765.72;;;19.33;50.79
54306;BME280;66145;45.188;5.712;2023-04-24T03:25:38;98793.38;;;19.49;50.97
54306;BME280;66145;45.188;5.712;2023-04-24T03:28:03;98765.03;;;19.36;50.74
54306;BME280;66145;45.188;5.712;2023-04-24T03:30:29;98796.44;;;19.56;50.95
54306;BME280;66145;45.188;5.712;2023-04-24T03:32:54;98792.06;;;19.55;50.82
54306;BME280;66145;45.188;5.712;2023-04-24T03:35:20;98741.28;;;19.19;50.97
54306;BME280;66145;45.188;5.712;2023-04-24T03:37:47;98766.03;;;19.32;50.96
54306;BME280;66145;45.188;5.712;2023-04-24T03:40:12;98741.78;;;19.12;51.01
54306;BME280;66145;45.188;5.712;2023-04-24T03:42:37;98795.03;;;19.41;51.18
54306;BME280;66145;45.188;5.712;2023-04-24T03:45:03;98778.78;;;19.27;50.69
54306;BME280;66145;45.188;5.712;2023-04-24T03:47:28;98792.25;;;19.50;50.94
54306;BME280;66145;45.188;5.712;2023-04-24T03:49:54;98783.56;;;19.48;50.88
54306;BME280;66145;45.188;5.712;2023-04-24T03:52:21;98765.53;;;19.38;50.74
54306;BME280;66145;45.188;5.712;2023-04-24T03:54:46;98760.50;;;19.40;50.79
54306;BME280;66145;45.188;5.712;2023-04-24T03:57:11;98748.94;;;19.35;50.83
54306;BME280;66145;45.188;5.712;2023-04-24T03:59:37;98754.91;;;19.37;50.76
54306;BME280;66145;45.188;5.712;2023-04-24T04:02:02;98770.00;;;19.43;50.95
54306;BME280;66145;45.188;5.712;2023-04-24T04:04:27;98755.22;;;19.35;50.85
54306;BME280;66145;45.188;5.712;2023-04-24T04:06:53;98782.13;;;19.42;50.99
54306;BME280;66145;45.188;5.712;2023-04-24T04:09:18;98697.66;;;18.88;50.91
54306;BME280;66145;45.188;5.712;2023-04-24T04:11:44;98771.38;;;19.28;51.06
54306;BME280;66145;45.188;5.712;2023-04-24T04:14:09;98778.78;;;19.27;51.00
54306;BME280;66145;45.188;5.712;2023-04-24T04:16:34;98808.09;;;19.44;50.99
54306;BME280;66145;45.188;5.712;2023-04-24T04:19:01;98779.94;;;19.26;51.10
54306;BME280;66145;45.188;5.712;2023-04-24T04:21:28;98777.19;;;19.26;51.07
54306;BME280;66145;45.188;5.712;2023-04-24T04:23:53;98782.84;;;19.30;51.17
54306;BME280;66145;45.188;5.712;2023-04-24T04:26:19;98786.19;;;19.36;51.03
54306;BME280;66145;45.188;5.712;2023-04-24T04:28:46;98804.06;;;19.42;50.85
54306;BME280;66145;45.188;5.712;2023-04-24T04:31:12;98776.69;;;19.33;50.99
54306;BME280;66145;45.188;5.712;2023-04-24T04:33:38;98758.03;;;19.18;50.91
54306;BME280;66145;45.188;5.712;2023-04-24T04:36:04;98782.50;;;19.32;50.92
54306;BME280;66145;45.188;5.712;2023-04-24T04:38:30;98781.53;;;19.27;50.82
54306;BME280;66145;45.188;5.712;2023-04-24T04:40:55;98814.72;;;19.43;51.02
54306;BME280;66145;45.188;5.712;2023-04-24T04:43:24;98810.38;;;19.42;51.02
54306;BME280;66145;45.188;5.712;2023-04-24T04:45:50;98763.56;;;19.09;51.19
54306;BME280;66145;45.188;5.712;2023-04-24T04:48:19;98810.69;;;19.41;51.08
54306;BME280;66145;45.188;5.712;2023-04-24T04:50:45;98812.50;;;19.37;50.71
54306;BME280;66145;45.188;5.712;2023-04-24T04:53:11;98795.41;;;19.31;50.78
54306;BME280;66145;45.188;5.712;2023-04-24T04:55:37;98804.25;;;19.37;50.67
54306;BME280;66145;45.188;5.712;2023-04-24T04:58:02;98821.16;;;19.48;50.87
54306;BME280;66145;45.188;5.712;2023-04-24T05:00:28;98809.41;;;19.38;50.88
54306;BME280;66145;45.188;5.712;2023-04-24T05:02:54;98793.47;;;19.32;50.88
54306;BME280;66145;45.188;5.712;2023-04-24T05:05:19;98784.97;;;19.24;50.99
54306;BME280;66145;45.188;5.712;2023-04-24T05:07:45;98785.00;;;19.15;50.83
54306;BME280;66145;45.188;5.712;2023-04-24T05:10:11;98806.88;;;19.33;50.88
54306;BME280;66145;45.188;5.712;2023-04-24T05:12:36;98824.09;;;19.34;50.98
54306;BME280;66145;45.188;5.712;2023-04-24T05:15:02;98825.06;;;19.38;51.05
54306;BME280;66145;45.188;5.712;2023-04-24T05:17:28;98778.09;;;19.00;51.15
54306;BME280;66145;45.188;5.712;2023-04-24T05:19:54;98848.25;;;19.49;50.98
54306;BME280;66145;45.188;5.712;2023-04-24T05:22:19;98850.34;;;19.52;50.87
54306;BME280;66145;45.188;5.712;2023-04-24T05:24:46;98819.59;;;19.38;50.77
54306;BME280;66145;45.188;5.712;2023-04-24T05:27:11;98848.88;;;19.55;50.79
54306;BME280;66145;45.188;5.712;2023-04-24T05:29:36;98841.63;;;19.50;50.81
54306;BME280;66145;45.188;5.712;2023-04-24T05:32:02;98857.56;;;19.57;50.81
54306;BME280;66145;45.188;5.712;2023-04-24T05:34:27;98783.56;;;19.09;50.76
54306;BME280;66145;45.188;5.712;2023-04-24T05:36:52;98855.81;;;19.52;50.91
54306;BME280;66145;45.188;5.712;2023-04-24T05:39:18;98821.53;;;19.28;50.72
54306;BME280;66145;45.188;5.712;2023-04-24T05:41:44;98850.50;;;19.47;50.96
54306;BME280;66145;45.188;5.712;2023-04-24T05:44:10;98854.06;;;19.48;51.14
54306;BME280;66145;45.188;5.712;2023-04-24T05:46:35;98848.75;;;19.42;50.92
54306;BME280;66145;45.188;5.712;2023-04-24T05:49:01;98829.75;;;19.28;50.90
54306;BME280;66145;45.188;5.712;2023-04-24T05:51:27;98864.38;;;19.51;50.85
54306;BME280;66145;45.188;5.712;2023-04-24T05:53:52;98836.69;;;19.35;50.85
54306;BME280;66145;45.188;5.712;2023-04-24T05:56:18;98861.47;;;19.47;50.88
54306;BME280;66145;45.188;5.712;2023-04-24T05:58:43;98851.00;;;19.49;50.66
54306;BME280;66145;45.188;5.712;2023-04-24T06:01:09;98873.69;;;19.58;50.54
54306;BME280;66145;45.188;5.712;2023-04-24T06:03:34;98886.97;;;19.56;50.76
54306;BME280;66145;45.188;5.712;2023-04-24T06:06:00;98835.28;;;19.20;50.60
54306;BME280;66145;45.188;5.712;2023-04-24T06:08:25;98892.00;;;19.37;51.04
54306;BME280;66145;45.188;5.712;2023-04-24T06:10:51;98915.84;;;19.45;50.83
54306;BME280;66145;45.188;5.712;2023-04-24T06:13:17;98913.63;;;19.38;50.94
54306;BME280;66145;45.188;5.712;2023-04-24T06:15:43;98925.56;;;19.42;50.74
54306;BME280;66145;45.188;5.712;2023-04-24T06:18:09;98923.16;;;19.41;50.94
54306;BME280;66145;45.188;5.712;2023-04-24T06:20:38;98947.97;;;19.53;50.83
54306;BME280;66145;45.188;5.712;2023-04-24T06:23:03;98930.06;;;19.47;50.64
54306;BME280;66145;45.188;5.712;2023-04-24T06:25:28;98933.41;;;19.53;50.72
54306;BME280;66145;45.188;5.712;2023-04-24T06:27:55;98920.69;;;19.48;50.51
54306;BME280;66145;45.188;5.712;2023-04-24T06:30:20;98929.88;;;19.52;50.67
54306;BME280;66145;45.188;5.712;2023-04-24T06:32:46;98887.06;;;19.21;50.66
54306;BME280;66145;45.188;5.712;2023-04-24T06:35:11;98920.09;;;19.34;50.79
54306;BME280;66145;45.188;5.712;2023-04-24T06:37:39;98937.66;;;19.41;50.88
54306;BME280;66145;45.188;5.712;2023-04-24T06:40:04;98943.63;;;19.43;50.84
54306;BME280;66145;45.188;5.712;2023-04-24T06:42:30;98890.47;;;19.09;50.91
54306;BME280;66145;45.188;5.712;2023-04-24T06:44:55;98920.72;;;19.30;50.68
54306;BME280;66145;45.188;5.712;2023-04-24T06:47:21;98932.16;;;19.41;50.87
54306;BME280;66145;45.188;5.712;2023-04-24T06:49:46;98900.59;;;19.18;50.70
54306;BME280;66145;45.188;5.712;2023-04-24T06:52:11;98956.97;;;19.54;50.86
54306;BME280;66145;45.188;5.712;2023-04-24T06:54:37;98913.63;;;19.38;50.77
54306;BME280;66145;45.188;5.712;2023-04-24T06:57:02;98956.34;;;19.57;50.76
54306;BME280;66145;45.188;5.712;2023-04-24T06:59:28;98944.91;;;19.46;50.57
54306;BME280;66145;45.188;5.712;2023-04-24T07:01:55;98957.47;;;19.47;50.84
54306;BME280;66145;45.188;5.712;2023-04-24T07:04:21;98990.72;;;19.54;50.86
54306;BME280;66145;45.188;5.712;2023-04-24T07:06:47;98951.72;;;19.31;50.95
54306;BME280;66145;45.188;5.712;2023-04-24T07:09:12;98984.59;;;19.49;50.85
54306;BME280;66145;45.188;5.712;2023-04-24T07:11:44;98969.94;;;19.36;50.88
54306;BME280;66145;45.188;5.712;2023-04-24T07:14:10;98993.00;;;19.43;50.94
54306;BME280;66145;45.188;5.712;2023-04-24T07:16:39;98984.78;;;19.35;50.87
54306;BME280;66145;45.188;5.712;2023-04-24T07:19:05;98985.75;;;19.30;50.93
54306;BME280;66145;45.188;5.712;2023-04-24T07:21:30;99002.50;;;19.37;51.02
54306;BME280;66145;45.188;5.712;2023-04-24T07:23:57;98985.09;;;19.33;51.24
54306;BME280;66145;45.188;5.712;2023-04-24T07:26:23;98956.09;;;19.14;51.19
54306;BME280;66145;45.188;5.712;2023-04-24T07:28:48;98961.38;;;19.20;50.95
54306;BME280;66145;45.188;5.712;2023-04-24T07:31:13;98973.81;;;19.26;50.96
54306;BME280;66145;45.188;5.712;2023-04-24T07:33:39;98987.66;;;19.29;51.18
54306;BME280;66145;45.188;5.712;2023-04-24T07:36:05;98975.44;;;19.18;51.12
54306;BME280;66145;45.188;5.712;2023-04-24T07:38:30;98998.16;;;19.27;51.08
54306;BME280;66145;45.188;5.712;2023-04-24T07:40:56;99009.59;;;19.29;50.98
54306;BME280;66145;45.188;5.712;2023-04-24T07:43:21;99017.53;;;19.31;51.16
54306;BME280;66145;45.188;5.712;2023-04-24T07:45:51;99009.47;;;19.26;51.12
54306;BME280;66145;45.188;5.712;2023-04-24T07:48:17;98993.50;;;19.10;51.06
54306;BME280;66145;45.188;5.712;2023-04-24T07:50:43;99024.63;;;19.23;51.14
54306;BME280;66145;45.188;5.712;2023-04-24T07:53:09;99009.47;;;19.08;51.33
54306;BME280;66145;45.188;5.712;2023-04-24T07:55:35;98997.69;;;18.99;51.26
54306;BME280;66145;45.188;5.712;2023-04-24T07:58:00;99038.66;;;19.13;51.35
54306;BME280;66145;45.188;5.712;2023-04-24T08:00:26;99006.72;;;18.99;51.60
54306;BME280;66145;45.188;5.712;2023-04-24T08:02:51;99019.16;;;19.14;51.36
54306;BME280;66145;45.188;5.712;2023-04-24T08:05:17;99033.16;;;19.22;51.58
54306;BME280;66145;45.188;5.712;2023-04-24T08:07:42;99037.53;;;19.23;51.31
54306;BME280;66145;45.188;5.712;2023-04-24T08:10:10;99010.28;;;19.09;51.23
54306;BME280;66145;45.188;5.712;2023-04-24T08:12:37;99014.31;;;19.11;51.33
54306;BME280;66145;45.188;5.712;2023-04-24T08:15:02;99041.09;;;19.23;51.29
54306;BME280;66145;45.188;5.712;2023-04-24T08:17:28;99032.38;;;19.21;51.26
54306;BME280;66145;45.188;5.712;2023-04-24T08:19:53;98981.22;;;18.90;51.28
54306;BME280;66145;45.188;5.712;2023-04-24T08:22:26;99035.13;;;19.21;51.45
54306;BME280;66145;45.188;5.712;2023-04-24T08:24:52;99007.69;;;19.04;51.23
54306;BME280;66145;45.188;5.712;2023-04-24T08:27:18;99027.19;;;19.11;51.08
54306;BME280;66145;45.188;5.712;2023-04-24T08:29:43;99039.47;;;19.13;51.48
54306;BME280;66145;45.188;5.712;2023-04-24T08:32:09;99054.44;;;19.16;51.40
54306;BME280;66145;45.188;5.712;2023-04-24T08:34:34;99036.72;;;19.05;51.25
54306;BME280;66145;45.188;5.712;2023-04-24T08:36:59;99020.38;;;18.91;51.48
54306;BME280;66145;45.188;5.712;2023-04-24T08:39:25;98964.75;;;18.64;51.49
54306;BME280;66145;45.188;5.712;2023-04-24T08:41:52;99019.75;;;18.94;51.27
54306;BME280;66145;45.188;5.712;2023-04-24T08:44:19;99040.09;;;19.10;51.54
54306;BME280;66145;45.188;5.712;2023-04-24T08:46:45;99041.06;;;19.14;51.34
54306;BME280;66145;45.188;5.712;2023-04-24T08:49:13;99041.06;;;19.14;51.34
54306;BME280;66145;45.188;5.712;2023-04-24T08:51:41;99034.94;;;19.18;51.32
54306;BME280;66145;45.188;5.712;2023-04-24T08:54:07;99011.72;;;18.97;51.33
54306;BME280;66145;45.188;5.712;2023-04-24T08:56:33;99014.44;;;19.06;51.26
54306;BME280;66145;45.188;5.712;2023-04-24T08:58:59;99037.84;;;19.12;51.53
54306;BME280;66145;45.188;5.712;2023-04-24T09:01:25;99042.34;;;19.17;51.41
54306;BME280;66145;45.188;5.712;2023-04-24T09:03:51;99034.47;;;19.07;51.38
54306;BME280;66145;45.188;5.712;2023-04-24T09:06:19;99033.78;;;19.10;51.27
54306;BME280;66145;45.188;5.712;2023-04-24T09:08:47;99022.03;;;19.00;51.53
54306;BME280;66145;45.188;5.712;2023-04-24T09:11:14;99033.63;;;19.06;51.54
54306;BME280;66145;45.188;5.712;2023-04-24T09:13:41;99008.28;;;18.92;51.44
54306;BME280;66145;45.188;5.712;2023-04-24T09:16:06;98989.25;;;18.69;51.70
54306;BME280;66145;45.188;5.712;2023-04-24T09:18:32;98944.28;;;18.44;51.41
54306;BME280;66145;45.188;5.712;2023-04-24T09:20:59;99038.00;;;19.07;51.56
54306;BME280;66145;45.188;5.712;2023-04-24T09:23:27;99004.91;;;18.86;51.46
54306;BME280;66145;45.188;5.712;2023-04-24T09:25:57;99027.50;;;19.00;51.42
54306;BME280;66145;45.188;5.712;2023-04-24T09:28:29;99035.09;;;19.04;51.48
54306;BME280;66145;45.188;5.712;2023-04-24T09:31:17;99034.28;;;19.12;51.30
54306;BME280;66145;45.188;5.712;2023-04-24T09:33:54;98962.31;;;18.62;51.73
54306;BME280;66145;45.188;5.712;2023-04-24T09:36:30;99002.31;;;18.90;51.45
54306;BME280;66145;45.188;5.712;2023-04-24T09:38:59;99039.28;;;19.10;51.32
54306;BME280;66145;45.188;5.712;2023-04-24T09:41:25;99038.50;;;19.09;51.29
54306;BME280;66145;45.188;5.712;2023-04-24T09:43:53;99007.66;;;18.86;51.44
54306;BME280;66145;45.188;5.712;2023-04-24T09:46:19;99003.44;;;18.89;51.37
54306;BME280;66145;45.188;5.712;2023-04-24T09:48:44;99031.72;;;19.07;51.58
54306;BME280;66145;45.188;5.712;2023-04-24T09:51:10;99027.03;;;18.98;51.38
54306;BME280;66145;45.188;5.712;2023-04-24T09:53:36;98995.41;;;18.83;51.43
54306;BME280;66145;45.188;5.712;2023-04-24T09:56:06;99018.97;;;19.02;51.46
54306;BME280;66145;45.188;5.712;2023-04-24T09:58:31;99019.78;;;19.03;51.74
54306;BME280;66145;45.188;5.712;2023-04-24T10:00:57;98977.34;;;18.82;51.60
54306;BME280;66145;45.188;5.712;2023-04-24T10:03:26;99002.81;;;18.92;51.36
54306;BME280;66145;45.188;5.712;2023-04-24T10:05:58;99014.44;;;19.06;51.31
54306;BME280;66145;45.188;5.712;2023-04-24T10:08:24;99020.44;;;19.08;51.61
54306;BME280;66145;45.188;5.712;2023-04-24T10:10:50;98957.81;;;18.75;51.33
54306;BME280;66145;45.188;5.712;2023-04-24T10:13:15;99009.47;;;19.08;51.42
54306;BME280;66145;45.188;5.712;2023-04-24T10:15:41;98973.94;;;18.85;51.39
54306;BME280;66145;45.188;5.712;2023-04-24T10:18:08;98983.97;;;18.90;51.31
54306;BME280;66145;45.188;5.712;2023-04-24T10:20:37;99005.94;;;19.08;51.49
54306;BME280;66145;45.188;5.712;2023-04-24T10:23:03;98978.63;;;18.85;51.41
54306;BME280;66145;45.188;5.712;2023-04-24T10:25:30;98972.81;;;18.87;51.55
54306;BME280;66145;45.188;5.712;2023-04-24T10:27:57;99013.66;;;19.06;51.41
54306;BME280;66145;45.188;5.712;2023-04-24T10:30:28;98974.28;;;18.84;51.44
54306;BME280;66145;45.188;5.712;2023-04-24T10:32:54;98970.25;;;18.81;51.21
54306;BME280;66145;45.188;5.712;2023-04-24T10:35:20;98928.97;;;18.51;51.67
54306;BME280;66145;45.188;5.712;2023-04-24T10:37:54;98992.84;;;18.96;51.64
54306;BME280;66145;45.188;5.712;2023-04-24T10:40:31;98911.72;;;18.42;51.46
54306;BME280;66145;45.188;5.712;2023-04-24T10:42:58;98996.72;;;19.04;51.66
54306;BME280;66145;45.188;5.712;2023-04-24T10:45:25;98986.25;;;18.97;51.43
54306;BME280;66145;45.188;5.712;2023-04-24T10:48:02;98998.66;;;19.03;51.57
54306;BME280;66145;45.188;5.712;2023-04-24T10:50:51;98954.31;;;18.83;51.45
54306;BME280;66145;45.188;5.712;2023-04-24T10:53:19;98982.03;;;18.99;51.45
54306;BME280;66145;45.188;5.712;2023-04-24T10:58:13;98961.22;;;18.81;51.75
54306;BME280;66145;45.188;5.712;2023-04-24T11:00:40;98952.19;;;18.80;51.46
54306;BME280;66145;45.188;5.712;2023-04-24T11:03:22;98972.31;;;18.93;51.36
54306;BME280;66145;45.188;5.712;2023-04-24T11:10:59;98968.97;;;18.96;51.63
54306;BME280;66145;45.188;5.712;2023-04-24T11:13:27;98978.97;;;18.92;51.70
54306;BME280;66145;45.188;5.712;2023-04-24T11:16:12;98944.59;;;18.68;51.67
54306;BME280;66145;45.188;5.712;2023-04-24T11:18:39;98961.69;;;18.74;51.57
54306;BME280;66145;45.188;5.712;2023-04-24T11:21:12;98945.72;;;18.59;51.91
54306;BME280;66145;45.188;5.712;2023-04-24T11:23:38;98972.00;;;18.77;51.92
54306;BME280;66145;45.188;5.712;2023-04-24T11:26:11;98945.72;;;18.67;51.82
54306;BME280;66145;45.188;5.712;2023-04-24T11:28:44;98941.38;;;18.75;51.59
54306;BME280;66145;45.188;5.712;2023-04-24T11:31:34;98965.75;;;18.94;51.67
54306;BME280;66145;45.188;5.712;2023-04-24T11:34:09;98966.06;;;18.93;51.68
54306;BME280;66145;45.188;5.712;2023-04-24T11:36:35;98942.84;;;18.73;51.54
54306;BME280;66145;45.188;5.712;2023-04-24T11:39:01;98959.97;;;18.96;51.39
54306;BME280;66145;45.188;5.712;2023-04-24T11:41:27;98966.06;;;18.93;51.70
54306;BME280;66145;45.188;5.712;2023-04-24T11:43:53;98948.00;;;18.92;51.67
54306;BME280;66145;45.188;5.712;2023-04-24T11:46:21;98881.44;;;18.47;51.41
54306;BME280;66145;45.188;5.712;2023-04-24T11:48:46;98949.31;;;18.94;51.59
54306;BME280;66145;45.188;5.712;2023-04-24T11:51:13;98920.28;;;18.76;51.58
54306;BME280;66145;45.188;5.712;2023-04-24T11:53:39;98940.91;;;18.91;51.45
54306;BME280;66145;45.188;5.712;2023-04-24T11:56:04;98913.19;;;18.75;51.54
54306;BME280;66145;45.188;5.712;2023-04-24T11:58:38;98905.13;;;18.69;51.75
54306;BME280;66145;45.188;5.712;2023-04-24T12:01:04;98943.66;;;18.82;51.75
54306;BME280;66145;45.188;5.712;2023-04-24T12:03:30;98893.03;;;18.44;51.74
54306;BME280;66145;45.188;5.712;2023-04-24T12:06:09;98876.44;;;18.41;51.99
54306;BME280;66145;45.188;5.712;2023-04-24T12:08:35;98927.69;;;18.75;51.84
54306;BME280;66145;45.188;5.712;2023-04-24T12:11:01;98888.53;;;18.48;51.97
54306;BME280;66145;45.188;5.712;2023-04-24T12:13:27;98919.31;;;18.72;51.72
54306;BME280;66145;45.188;5.712;2023-04-24T12:15:52;98921.56;;;18.87;51.74
54306;BME280;66145;45.188;5.712;2023-04-24T12:18:18;98887.91;;;18.69;51.68
54306;BME280;66145;45.188;5.712;2023-04-24T12:20:43;98918.50;;;18.89;51.86
54306;BME280;66145;45.188;5.712;2023-04-24T12:23:09;98918.34;;;18.85;51.76
54306;BME280;66145;45.188;5.712;2023-04-24T12:25:34;98923.66;;;18.90;51.70
54306;BME280;66145;45.188;5.712;2023-04-24T12:30:30;98887.56;;;18.62;51.76
54306;BME280;66145;45.188;5.712;2023-04-24T12:32:57;98921.22;;;18.89;51.85
54306;BME280;66145;45.188;5.712;2023-04-24T12:35:25;98927.53;;;18.89;51.26
54306;BME280;66145;45.188;5.712;2023-04-24T12:37:52;98848.56;;;18.38;51.54
54306;BME280;66145;45.188;5.712;2023-04-24T12:40:19;98908.50;;;18.75;51.69
54306;BME280;66145;45.188;5.712;2023-04-24T12:45:12;98901.25;;;18.79;51.54
54306;BME280;66145;45.188;5.712;2023-04-24T12:47:39;98895.94;;;18.65;51.58
54306;BME280;66145;45.188;5.712;2023-04-24T12:50:12;98887.72;;;18.57;51.64
54306;BME280;66145;45.188;5.712;2023-04-24T12:52:39;98876.28;;;18.54;51.88
54306;BME280;66145;45.188;5.712;2023-04-24T12:55:05;98903.19;;;18.70;51.70
54306;BME280;66145;45.188;5.712;2023-04-24T12:57:33;98904.97;;;18.66;51.90
54306;BME280;66145;45.188;5.712;2023-04-24T13:00:00;98901.91;;;18.76;51.82
54306;BME280;66145;45.188;5.712;2023-04-24T13:02:28;98899.31;;;18.89;51.56
54306;BME280;66145;45.188;5.712;2023-04-24T13:04:58;98892.69;;;18.90;51.67
54306;BME280;66145;45.188;5.712;2023-04-24T13:07:24;98869.53;;;18.61;51.36
54306;BME280;66145;45.188;5.712;2023-04-24T13:09:51;98867.75;;;18.65;51.84